Time;durP1;ratioP1;P1;durP2;ratioP2;P2;SDS_P1;SDS_P2;PMS_P1;PMS_P2;Temp;Humidity;BMP_temperature;BMP_pressure;BME280_temperature;BME280_humidity;BME280_pressure;Samples;Min_cycle;Max_cycle;Signal;HPM_P1;HPM_P2
2023/10/13 00:01:03;;;;;;;267.05;48.67;;;;;;;;;;5073051;28;20041;-58
2023/10/13 00:03:31;;;;;;;226.30;48.95;;;;;;;;;;5070634;28;20077;-58
2023/10/13 00:06:03;;;;;;;244.10;50.08;;;;;;;;;;5071988;28;20127;-58
2023/10/13 00:08:32;;;;;;;292.48;54.47;;;;;;;;;;5070207;28;20052;-58
2023/10/13 00:11:02;;;;;;;255.30;51.28;;;;;;;;;;5072323;28;20035;-58
2023/10/13 00:13:50;;;;;;;240.25;51.38;;;;;;;;;;5071849;28;20482;-58
2023/10/13 00:16:21;;;;;;;260.20;54.47;;;;;;;;;;5073153;28;20123;-58
2023/10/13 00:18:50;;;;;;;280.27;55.50;;;;;;;;;;5071628;28;20032;-58
2023/10/13 00:21:31;;;;;;;246.88;52.30;;;;;;;;;;5076319;28;20044;-58
2023/10/13 00:23:59;;;;;;;274.35;53.83;;;;;;;;;;5062643;28;20470;-58
2023/10/13 00:26:30;;;;;;;258.70;53.92;;;;;;;;;;5066043;28;20029;-58
2023/10/13 00:31:38;;;;;;;249.75;56.50;;;;;;;;;;5067618;28;20041;-58
2023/10/13 00:37:12;;;;;;;280.25;58.25;;;;;;;;;;5069427;28;20503;-58
2023/10/13 00:39:44;;;;;;;270.15;58.33;;;;;;;;;;5069722;28;20086;-58
2023/10/13 00:42:18;;;;;;;263.38;55.17;;;;;;;;;;5069642;28;20108;-58
2023/10/13 00:44:48;;;;;;;273.73;56.60;;;;;;;;;;5069751;28;20492;-58
2023/10/13 00:50:00;;;;;;;261.55;54.88;;;;;;;;;;5070271;28;20476;-58
2023/10/13 00:52:26;;;;;;;270.23;56.20;;;;;;;;;;5072858;28;20032;-58
2023/10/13 00:54:53;;;;;;;247.93;53.05;;;;;;;;;;5074497;28;20032;-58
2023/10/13 00:57:26;;;;;;;235.95;51.75;;;;;;;;;;5074713;28;20437;-58
2023/10/13 00:59:57;;;;;;;231.88;50.15;;;;;;;;;;5070956;28;20367;-58
2023/10/13 01:05:02;;;;;;;237.38;51.05;;;;;;;;;;5072916;28;20389;-58
2023/10/13 01:07:29;;;;;;;211.57;48.33;;;;;;;;;;5069979;28;20052;-58
2023/10/13 01:09:55;;;;;;;205.50;47.83;;;;;;;;;;5074978;28;20597;-58
2023/10/13 01:12:25;;;;;;;218.73;48.47;;;;;;;;;;5070385;28;20032;-58
2023/10/13 01:14:51;;;;;;;184.55;44.40;;;;;;;;;;5068966;28;20199;-58
2023/10/13 01:17:18;;;;;;;193.25;47.78;;;;;;;;;;5072570;28;20048;-58
2023/10/13 01:19:45;;;;;;;148.80;43.75;;;;;;;;;;5071271;28;20071;-58
2023/10/13 01:22:12;;;;;;;161.77;45.08;;;;;;;;;;5071621;28;20098;-58
2023/10/13 01:24:38;;;;;;;148.48;42.88;;;;;;;;;;5067169;28;20040;-58
2023/10/13 01:27:17;;;;;;;141.52;42.28;;;;;;;;;;5073645;28;20071;-58
2023/10/13 01:29:58;;;;;;;124.72;37.50;;;;;;;;;;5059594;28;20261;-58
2023/10/13 01:32:25;;;;;;;121.13;38.38;;;;;;;;;;5070641;28;20041;-58
2023/10/13 01:34:55;;;;;;;97.95;33.67;;;;;;;;;;5066930;28;20123;-58
2023/10/13 01:37:21;;;;;;;101.80;32.25;;;;;;;;;;5071008;28;20099;-58
2023/10/13 01:39:49;;;;;;;86.93;32.22;;;;;;;;;;5067678;28;20121;-58
2023/10/13 01:42:21;;;;;;;79.93;27.98;;;;;;;;;;5063801;28;20048;-58
2023/10/13 01:44:48;;;;;;;86.85;28.98;;;;;;;;;;5071896;28;20041;-58
2023/10/13 01:47:16;;;;;;;67.20;27.42;;;;;;;;;;5070733;28;20485;-58
2023/10/13 01:49:46;;;;;;;68.80;25.95;;;;;;;;;;5073876;28;20150;-58
2023/10/13 01:52:15;;;;;;;66.25;25.75;;;;;;;;;;5069205;28;20045;-58
2023/10/13 01:54:50;;;;;;;68.38;24.98;;;;;;;;;;5069799;28;20049;-58
2023/10/13 01:57:19;;;;;;;59.65;23.08;;;;;;;;;;5066576;28;20352;-58
2023/10/13 01:59:45;;;;;;;60.78;23.55;;;;;;;;;;5067967;28;20045;-58
2023/10/13 02:02:16;;;;;;;61.33;24.23;;;;;;;;;;5076397;28;20446;-58
2023/10/13 02:04:48;;;;;;;51.45;21.27;;;;;;;;;;5076337;28;20360;-58
2023/10/13 02:07:20;;;;;;;56.25;20.77;;;;;;;;;;5061444;28;20048;-58
2023/10/13 02:09:47;;;;;;;50.05;20.35;;;;;;;;;;5068524;28;20110;-58
2023/10/13 02:12:14;;;;;;;41.75;18.92;;;;;;;;;;5067172;28;20047;-58
2023/10/13 02:14:42;;;;;;;53.35;21.50;;;;;;;;;;5067818;28;20115;-58
2023/10/13 02:17:16;;;;;;;50.33;20.52;;;;;;;;;;5060812;28;20120;-58
2023/10/13 02:19:46;;;;;;;46.00;19.13;;;;;;;;;;5080651;28;20492;-58
2023/10/13 02:22:27;;;;;;;52.38;20.13;;;;;;;;;;5067867;28;20117;-58
2023/10/13 02:25:01;;;;;;;51.30;19.92;;;;;;;;;;5070279;28;20050;-58
2023/10/13 02:27:27;;;;;;;61.08;22.25;;;;;;;;;;5070767;28;20108;-58
2023/10/13 02:29:58;;;;;;;58.25;23.13;;;;;;;;;;5066077;28;20084;-58
2023/10/13 02:32:26;;;;;;;68.05;24.35;;;;;;;;;;5067009;28;20049;-58
2023/10/13 02:34:57;;;;;;;76.07;26.98;;;;;;;;;;5077596;28;20109;-58
2023/10/13 02:37:23;;;;;;;72.80;26.95;;;;;;;;;;5081296;28;20036;-58
2023/10/13 02:39:49;;;;;;;87.65;29.83;;;;;;;;;;5072223;28;20047;-58
2023/10/13 02:42:23;;;;;;;84.82;30.83;;;;;;;;;;5070742;28;20036;-58
2023/10/13 02:44:50;;;;;;;84.05;28.13;;;;;;;;;;5071681;28;20102;-58
2023/10/13 02:47:19;;;;;;;93.60;31.60;;;;;;;;;;5071895;28;20490;-58
2023/10/13 02:49:47;;;;;;;87.10;30.27;;;;;;;;;;5068483;28;20119;-58
2023/10/13 02:52:13;;;;;;;85.70;30.55;;;;;;;;;;5074682;28;20056;-58
2023/10/13 02:54:46;;;;;;;93.53;31.98;;;;;;;;;;5073226;28;20055;-58
2023/10/13 02:57:16;;;;;;;97.68;31.95;;;;;;;;;;5071163;28;20340;-58
2023/10/13 02:59:55;;;;;;;111.60;35.33;;;;;;;;;;5074920;28;20037;-58
2023/10/13 03:02:27;;;;;;;113.75;34.60;;;;;;;;;;5072247;28;20057;-58
2023/10/13 03:05:08;;;;;;;142.00;40.80;;;;;;;;;;5074039;28;20134;-58
2023/10/13 03:07:36;;;;;;;121.60;40.08;;;;;;;;;;5072906;28;20131;-58
2023/10/13 03:10:09;;;;;;;129.07;40.95;;;;;;;;;;5074499;28;20143;-58
2023/10/13 03:12:35;;;;;;;;;;;;;;;;;;5071943;28;20052;-58
2023/10/13 03:15:17;;;;;;;130.60;41.22;;;;;;;;;;5075959;28;20019;-58
2023/10/13 03:17:44;;;;;;;129.48;41.92;;;;;;;;;;5074329;28;20055;-58
2023/10/13 03:20:15;;;;;;;107.15;40.65;;;;;;;;;;5075324;28;20036;-58
2023/10/13 03:22:45;;;;;;;115.93;40.42;;;;;;;;;;5076866;28;20400;-58
2023/10/13 03:25:24;;;;;;;120.90;41.92;;;;;;;;;;5071021;28;20492;-58
2023/10/13 03:30:17;;;;;;;127.47;41.10;;;;;;;;;;5077786;28;20464;-58
2023/10/13 03:32:47;;;;;;;118.88;42.40;;;;;;;;;;5069599;28;20047;-58
2023/10/13 03:35:14;;;;;;;112.82;42.20;;;;;;;;;;5080333;28;20124;-58
2023/10/13 03:37:40;;;;;;;132.15;40.28;;;;;;;;;;5069757;28;20044;-58
2023/10/13 03:43:04;;;;;;;111.15;38.78;;;;;;;;;;5070783;28;20047;-58
2023/10/13 03:45:37;;;;;;;103.80;36.85;;;;;;;;;;5075167;28;20127;-58
2023/10/13 03:48:08;;;;;;;100.53;37.87;;;;;;;;;;5072457;28;20047;-58
2023/10/13 03:50:36;;;;;;;97.82;36.22;;;;;;;;;;5074190;28;20052;-58
2023/10/13 03:53:03;;;;;;;98.95;33.55;;;;;;;;;;5071892;28;20044;-58
2023/10/13 03:55:29;;;;;;;94.35;32.50;;;;;;;;;;5071783;28;20045;-58
2023/10/13 03:58:00;;;;;;;101.90;32.50;;;;;;;;;;5069844;28;20036;-58
2023/10/13 04:00:29;;;;;;;100.43;33.67;;;;;;;;;;5071357;28;20397;-58
2023/10/13 04:03:16;;;;;;;84.72;29.63;;;;;;;;;;5065369;28;20049;-58
2023/10/13 04:06:00;;;;;;;82.40;28.42;;;;;;;;;;5083026;28;20518;-58
2023/10/13 04:16:34;;;;;;;74.78;28.38;;;;;;;;;;5075379;28;20450;-58
2023/10/13 04:24:21;;;;;;;69.32;26.45;;;;;;;;;;5070759;28;20052;-59
2023/10/13 04:29:48;;;;;;;65.80;25.55;;;;;;;;;;5070425;28;20139;-58
2023/10/13 04:32:28;;;;;;;70.28;24.80;;;;;;;;;;5073337;28;20131;-58
2023/10/13 04:34:58;;;;;;;80.70;26.50;;;;;;;;;;5073635;28;20585;-58
2023/10/13 04:37:33;;;;;;;71.25;24.40;;;;;;;;;;5074857;28;20131;-58
2023/10/13 04:40:09;;;;;;;77.25;24.92;;;;;;;;;;5066417;28;20159;-59
2023/10/13 04:42:53;;;;;;;74.10;25.15;;;;;;;;;;5070284;28;20393;-59
2023/10/13 04:50:46;;;;;;;89.88;27.55;;;;;;;;;;5057462;28;20041;-58
2023/10/13 04:53:59;;;;;;;85.75;28.92;;;;;;;;;;5069059;28;20075;-59
2023/10/13 04:59:17;;;;;;;107.80;30.25;;;;;;;;;;5069826;28;20047;-59
2023/10/13 05:05:03;;;;;;;91.10;27.20;;;;;;;;;;5063374;28;20304;-59
2023/10/13 05:46:35;;;;;;;59.47;20.45;;;;;;;;;;5067124;28;20037;-59
2023/10/13 06:29:45;;;;;;;29.35;12.52;;;;;;;;;;5069010;28;20048;-60
2023/10/13 06:32:12;;;;;;;27.88;12.30;;;;;;;;;;5073159;28;20091;-59
2023/10/13 06:34:47;;;;;;;19.90;9.93;;;;;;;;;;5072951;28;20056;-59
2023/10/13 06:37:22;;;;;;;20.48;11.35;;;;;;;;;;5072106;28;20068;-59
2023/10/13 06:39:56;;;;;;;17.02;9.35;;;;;;;;;;5069344;28;20044;-59
2023/10/13 06:42:34;;;;;;;19.05;9.48;;;;;;;;;;5064350;28;20080;-59
2023/10/13 06:45:11;;;;;;;18.88;9.43;;;;;;;;;;5073210;28;20071;-59
2023/10/13 06:47:49;;;;;;;18.90;10.13;;;;;;;;;;5073452;28;20071;-59
2023/10/13 06:50:24;;;;;;;24.05;12.02;;;;;;;;;;5069594;28;20040;-59
2023/10/13 06:52:54;;;;;;;22.92;12.05;;;;;;;;;;5071351;28;20487;-59
2023/10/13 06:55:26;;;;;;;24.70;12.15;;;;;;;;;;5071695;28;20056;-59
2023/10/13 06:57:53;;;;;;;24.80;12.40;;;;;;;;;;5071507;28;20119;-60
2023/10/13 07:00:52;;;;;;;23.65;12.45;;;;;;;;;;5070783;28;20062;-60
2023/10/13 07:03:06;;;;;;;27.48;12.55;;;;;;;;;;5063204;28;20514;-59
2023/10/13 07:05:39;;;;;;;27.33;11.07;;;;;;;;;;5071574;28;20091;-59
2023/10/13 07:08:06;;;;;;;21.48;10.48;;;;;;;;;;5073192;28;20048;-59
2023/10/13 07:10:44;;;;;;;25.80;9.90;;;;;;;;;;5071103;28;20040;-59
2023/10/13 07:13:13;;;;;;;27.25;11.40;;;;;;;;;;5066400;28;20089;-59
2023/10/13 07:15:44;;;;;;;25.38;9.90;;;;;;;;;;5068851;28;20093;-59
2023/10/13 07:18:16;;;;;;;26.75;9.38;;;;;;;;;;5072066;28;20048;-59
2023/10/13 07:20:45;;;;;;;24.92;9.65;;;;;;;;;;5071146;28;20051;-59
2023/10/13 07:23:17;;;;;;;25.75;9.20;;;;;;;;;;5072517;28;20040;-59
2023/10/13 07:25:51;;;;;;;29.25;10.82;;;;;;;;;;5069824;28;20436;-59
2023/10/13 07:28:17;;;;;;;39.13;11.13;;;;;;;;;;5072554;28;20135;-60
2023/10/13 07:33:22;;;;;;;33.40;11.43;;;;;;;;;;5068256;28;20049;-59
2023/10/13 07:35:50;;;;;;;26.13;9.57;;;;;;;;;;5060749;28;20375;-59
2023/10/13 07:38:17;;;;;;;32.53;11.20;;;;;;;;;;5063782;28;20047;-59
2023/10/13 07:40:51;;;;;;;30.80;10.55;;;;;;;;;;5044628;28;20882;-59
2023/10/13 07:43:21;;;;;;;32.90;11.05;;;;;;;;;;5063656;28;20064;-59
2023/10/13 07:45:51;;;;;;;27.42;10.90;;;;;;;;;;5061860;28;20037;-59
2023/10/13 07:48:20;;;;;;;35.50;10.52;;;;;;;;;;5063865;28;20036;-60
2023/10/13 07:51:01;;;;;;;31.73;10.90;;;;;;;;;;5061939;28;20063;-59
2023/10/13 07:53:34;;;;;;;28.35;10.18;;;;;;;;;;5064292;28;20040;-59
2023/10/13 07:56:05;;;;;;;29.23;10.40;;;;;;;;;;5066065;28;20500;-59
2023/10/13 07:58:32;;;;;;;26.02;10.52;;;;;;;;;;5071818;28;20036;-59
2023/10/13 08:08:38;;;;;;;29.30;10.63;;;;;;;;;;5070983;28;20092;-59
2023/10/13 08:11:18;;;;;;;38.28;11.10;;;;;;;;;;5071581;28;20055;-59
2023/10/13 08:13:47;;;;;;;32.22;10.15;;;;;;;;;;5068744;28;20040;-59
2023/10/13 08:16:20;;;;;;;29.85;10.73;;;;;;;;;;5069511;28;20045;-59
2023/10/13 08:18:49;;;;;;;;;;;;;;;;;;5070264;28;20063;-59
2023/10/13 08:21:22;;;;;;;35.75;12.18;;;;;;;;;;5070406;28;19967;-59
2023/10/13 08:34:59;;;;;;;28.35;10.88;;;;;;;;;;5046974;28;20037;-59
2023/10/13 08:37:29;;;;;;;28.90;12.00;;;;;;;;;;5071216;28;20051;-59
2023/10/13 08:45:53;;;;;;;27.75;10.70;;;;;;;;;;5070000;28;20091;-59
2023/10/13 09:01:34;;;;;;;24.77;12.13;;;;;;;;;;5070898;28;20102;-59
2023/10/13 09:04:23;;;;;;;28.25;11.90;;;;;;;;;;5068736;28;20111;-59
2023/10/13 09:12:13;;;;;;;25.17;13.63;;;;;;;;;;5070243;28;20401;-59
2023/10/13 09:14:47;;;;;;;27.10;13.35;;;;;;;;;;5068332;28;20536;-59
2023/10/13 09:19:55;;;;;;;23.23;12.73;;;;;;;;;;5070644;28;20499;-59
2023/10/13 09:22:35;;;;;;;27.02;14.80;;;;;;;;;;5069429;28;20116;-59
2023/10/13 09:25:02;;;;;;;24.35;12.65;;;;;;;;;;5065632;28;20575;-59
2023/10/13 09:27:29;;;;;;;19.48;12.43;;;;;;;;;;5070767;28;20158;-59
2023/10/13 09:30:20;;;;;;;23.15;13.23;;;;;;;;;;5068410;28;20060;-59
2023/10/13 09:32:45;;;;;;;24.88;11.70;;;;;;;;;;5069427;28;20044;-59
2023/10/13 09:35:27;;;;;;;26.55;12.32;;;;;;;;;;5070555;28;20408;-59
2023/10/13 09:37:56;;;;;;;21.92;11.27;;;;;;;;;;5070288;28;20048;-59
2023/10/13 09:40:27;;;;;;;18.95;10.98;;;;;;;;;;5068745;28;20068;-59
2023/10/13 09:42:59;;;;;;;19.73;10.70;;;;;;;;;;5073053;28;20544;-59
2023/10/13 09:45:59;;;;;;;15.88;10.02;;;;;;;;;;5072334;28;20048;-59
2023/10/13 09:48:28;;;;;;;21.38;8.23;;;;;;;;;;5073085;28;20063;-59
2023/10/13 09:50:57;;;;;;;16.55;8.38;;;;;;;;;;5072824;28;20143;-59
2023/10/13 09:53:23;;;;;;;16.17;8.18;;;;;;;;;;5069913;28;20045;-59
2023/10/13 09:56:11;;;;;;;17.27;7.50;;;;;;;;;;5072190;28;20048;-59
2023/10/13 09:58:47;;;;;;;21.88;7.65;;;;;;;;;;5072366;28;20426;-59
2023/10/13 10:01:20;;;;;;;17.00;7.10;;;;;;;;;;5071562;28;20041;-59
2023/10/13 10:04:08;;;;;;;17.98;6.65;;;;;;;;;;5073899;28;20389;-59
2023/10/13 10:06:54;;;;;;;15.57;6.72;;;;;;;;;;5072927;28;20040;-59
2023/10/13 10:09:22;;;;;;;15.93;7.53;;;;;;;;;;5073035;28;20088;-59
2023/10/13 10:12:07;;;;;;;22.88;7.78;;;;;;;;;;5073289;28;20045;-59
2023/10/13 10:14:42;;;;;;;22.80;7.80;;;;;;;;;;5060761;28;20055;-59
2023/10/13 10:17:09;;;;;;;19.15;7.00;;;;;;;;;;5071449;28;20036;-59
2023/10/13 10:19:54;;;;;;;19.52;7.03;;;;;;;;;;5071305;28;20051;-59
2023/10/13 10:22:44;;;;;;;17.55;6.45;;;;;;;;;;5073092;28;20103;-59
2023/10/13 10:25:24;;;;;;;16.75;6.00;;;;;;;;;;5070158;28;20048;-60
2023/10/13 10:28:00;;;;;;;21.75;7.32;;;;;;;;;;5072789;28;20148;-59
2023/10/13 10:30:27;;;;;;;20.83;6.28;;;;;;;;;;5071589;28;20566;-59
2023/10/13 10:33:00;;;;;;;14.35;6.35;;;;;;;;;;5071560;28;20067;-59
2023/10/13 10:35:32;;;;;;;15.35;6.55;;;;;;;;;;5072756;28;20044;-59
2023/10/13 10:38:38;;;;;;;19.90;6.65;;;;;;;;;;5073635;28;20052;-59
2023/10/13 10:41:00;;;;;;;16.63;5.68;;;;;;;;;;5072842;28;20052;-59
2023/10/13 10:43:28;;;;;;;16.40;6.80;;;;;;;;;;5071991;28;20045;-59
2023/10/13 10:45:59;;;;;;;17.38;6.03;;;;;;;;;;5072225;28;20151;-59
2023/10/13 10:48:34;;;;;;;15.90;5.57;;;;;;;;;;5071677;28;20377;-59
2023/10/13 10:51:06;;;;;;;17.52;5.65;;;;;;;;;;5060906;28;20067;-59
2023/10/13 10:53:34;;;;;;;13.88;5.40;;;;;;;;;;5071054;28;20488;-59
2023/10/13 10:56:19;;;;;;;15.52;7.10;;;;;;;;;;5072271;28;20060;-59
2023/10/13 10:58:46;;;;;;;20.42;6.00;;;;;;;;;;5072823;28;20399;-59
2023/10/13 11:01:21;;;;;;;20.38;7.05;;;;;;;;;;5071225;28;20613;-59
2023/10/13 11:06:54;;;;;;;15.82;6.30;;;;;;;;;;5072903;28;20047;-59
2023/10/13 11:11:53;;;;;;;17.08;6.00;;;;;;;;;;5073091;28;20045;-59
2023/10/13 11:14:23;;;;;;;15.57;6.05;;;;;;;;;;5072601;28;20036;-59
2023/10/13 11:17:13;;;;;;;17.98;6.35;;;;;;;;;;5070450;28;20032;-59
2023/10/13 11:19:40;;;;;;;17.45;6.30;;;;;;;;;;5062045;28;20047;-59
2023/10/13 11:22:29;;;;;;;14.75;5.53;;;;;;;;;;5072184;28;20040;-59
2023/10/13 11:25:11;;;;;;;19.20;5.93;;;;;;;;;;5071884;28;20044;-59
2023/10/13 11:30:20;;;;;;;21.60;6.03;;;;;;;;;;5064361;28;20445;-59
2023/10/13 11:32:46;;;;;;;17.02;6.78;;;;;;;;;;5071355;28;20049;-59
2023/10/13 11:35:23;;;;;;;24.85;6.53;;;;;;;;;;5070077;28;20041;-59
2023/10/13 11:38:25;;;;;;;17.05;6.25;;;;;;;;;;5067753;28;20040;-59
2023/10/13 11:41:06;;;;;;;17.42;5.78;;;;;;;;;;5067244;28;20595;-59
2023/10/13 11:46:14;;;;;;;16.05;6.78;;;;;;;;;;5070107;28;20089;-59
2023/10/13 11:48:45;;;;;;;18.05;6.85;;;;;;;;;;5071263;28;20079;-59
2023/10/13 11:51:23;;;;;;;19.00;6.97;;;;;;;;;;5071456;28;20099;-60
2023/10/13 11:53:53;;;;;;;22.23;7.45;;;;;;;;;;5068189;28;20053;-61
2023/10/13 11:56:24;;;;;;;15.60;6.80;;;;;;;;;;5064807;28;20044;-61
2023/10/13 11:58:50;;;;;;;16.40;7.90;;;;;;;;;;5060710;28;20459;-61
2023/10/13 12:01:20;;;;;;;23.70;7.63;;;;;;;;;;5067235;28;20081;-61
2023/10/13 12:11:50;;;;;;;23.83;9.05;;;;;;;;;;5062443;28;20036;-61
2023/10/13 12:14:17;;;;;;;27.30;8.63;;;;;;;;;;5061470;28;20059;-60
2023/10/13 12:16:56;;;;;;;24.80;10.65;;;;;;;;;;5064875;28;20067;-60
2023/10/13 12:19:29;;;;;;;22.13;9.68;;;;;;;;;;5059653;28;20036;-61
2023/10/13 12:21:55;;;;;;;23.85;9.57;;;;;;;;;;5069028;28;20051;-62
2023/10/13 12:24:30;;;;;;;22.65;9.10;;;;;;;;;;5071163;28;20491;-61
2023/10/13 12:26:57;;;;;;;19.15;9.32;;;;;;;;;;5066257;28;20178;-60
2023/10/13 12:29:28;;;;;;;26.38;10.07;;;;;;;;;;5066750;28;20465;-61
2023/10/13 12:32:07;;;;;;;26.33;9.68;;;;;;;;;;5057048;28;20064;-61
2023/10/13 12:51:20;;;;;;;25.73;10.60;;;;;;;;;;5063958;28;20502;-61
2023/10/13 12:53:47;;;;;;;21.02;10.27;;;;;;;;;;5065088;28;20097;-61
2023/10/13 12:56:14;;;;;;;24.17;10.93;;;;;;;;;;5062330;28;20036;-61
2023/10/13 12:58:41;;;;;;;27.58;11.52;;;;;;;;;;5067587;28;20045;-61
2023/10/13 13:01:07;;;;;;;30.85;11.32;;;;;;;;;;5066958;28;20044;-61
2023/10/13 13:03:34;;;;;;;27.95;13.13;;;;;;;;;;5064080;28;20043;-61
2023/10/13 13:06:07;;;;;;;29.73;12.30;;;;;;;;;;5068260;28;20055;-61
2023/10/13 13:08:35;;;;;;;27.83;10.83;;;;;;;;;;5069554;28;20441;-61
2023/10/13 13:11:09;;;;;;;21.30;10.48;;;;;;;;;;5069083;28;20507;-62
2023/10/13 13:13:35;;;;;;;28.27;11.38;;;;;;;;;;5069578;28;20071;-61
2023/10/13 13:16:03;;;;;;;41.13;12.32;;;;;;;;;;5068881;28;20501;-61
2023/10/13 13:18:29;;;;;;;24.77;10.93;;;;;;;;;;5066391;28;20044;-62
2023/10/13 13:20:56;;;;;;;28.48;10.82;;;;;;;;;;5068294;28;20123;-61
2023/10/13 13:23:25;;;;;;;29.98;11.38;;;;;;;;;;5063829;28;20118;-61
2023/10/13 13:25:52;;;;;;;35.92;13.25;;;;;;;;;;5067867;28;20101;-62
2023/10/13 13:28:18;;;;;;;31.60;14.05;;;;;;;;;;5067579;28;20139;-62
2023/10/13 13:30:50;;;;;;;29.00;11.38;;;;;;;;;;5067542;28;20088;-61
2023/10/13 13:33:16;;;;;;;32.88;13.32;;;;;;;;;;5069787;28;20040;-61
2023/10/13 13:35:43;;;;;;;35.80;11.48;;;;;;;;;;5070434;28;20116;-62
2023/10/13 13:38:30;;;;;;;32.55;11.18;;;;;;;;;;5069893;28;20072;-61
2023/10/13 13:40:56;;;;;;;30.33;11.25;;;;;;;;;;5069577;28;20472;-61
2023/10/13 13:43:37;;;;;;;45.15;11.60;;;;;;;;;;5066788;28;20132;-61
2023/10/13 13:46:03;;;;;;;24.35;10.27;;;;;;;;;;5059477;28;20052;-61
2023/10/13 13:48:31;;;;;;;34.72;12.35;;;;;;;;;;5070197;28;20131;-61
2023/10/13 13:51:04;;;;;;;35.55;11.98;;;;;;;;;;5068516;28;20063;-61
2023/10/13 13:53:34;;;;;;;40.17;11.10;;;;;;;;;;5068635;28;20051;-61
2023/10/13 13:56:04;;;;;;;34.92;11.48;;;;;;;;;;5070627;28;20036;-61
2023/10/13 13:58:30;;;;;;;33.80;11.18;;;;;;;;;;5067704;28;20051;-61
2023/10/13 14:01:12;;;;;;;33.15;9.77;;;;;;;;;;5067593;28;20040;-61
2023/10/13 14:03:44;;;;;;;31.30;10.38;;;;;;;;;;5069664;28;20135;-61
2023/10/13 14:06:18;;;;;;;30.27;10.43;;;;;;;;;;5062015;28;20048;-61
2023/10/13 14:08:48;;;;;;;27.77;10.20;;;;;;;;;;5065499;28;20049;-61
2023/10/13 14:11:22;;;;;;;26.88;10.48;;;;;;;;;;5069760;28;20416;-61
2023/10/13 14:13:49;;;;;;;35.60;10.10;;;;;;;;;;5067800;28;20056;-61
2023/10/13 14:16:16;;;;;;;26.75;9.98;;;;;;;;;;5068046;28;20045;-61
2023/10/13 14:18:51;;;;;;;25.63;9.00;;;;;;;;;;5069215;28;20123;-61
2023/10/13 14:21:24;;;;;;;27.70;11.10;;;;;;;;;;5056098;28;20706;-61
2023/10/13 14:23:53;;;;;;;31.27;9.20;;;;;;;;;;5070117;28;20407;-61
2023/10/13 14:26:26;;;;;;;27.67;9.45;;;;;;;;;;5066412;28;20037;-61
2023/10/13 14:29:03;;;;;;;26.75;9.43;;;;;;;;;;5068069;28;20060;-62
2023/10/13 14:31:30;;;;;;;25.48;9.50;;;;;;;;;;5073744;28;20046;-61
2023/10/13 14:33:59;;;;;;;31.48;10.52;;;;;;;;;;5072275;28;20098;-61
2023/10/13 14:36:29;;;;;;;25.35;9.63;;;;;;;;;;5072504;28;20043;-61
2023/10/13 14:38:56;;;;;;;23.35;8.57;;;;;;;;;;5073169;28;20530;-61
2023/10/13 14:41:22;;;;;;;31.35;9.07;;;;;;;;;;5067568;28;20327;-61
2023/10/13 14:43:48;;;;;;;25.20;9.30;;;;;;;;;;5059133;28;20352;-61
2023/10/13 14:46:17;;;;;;;29.52;8.75;;;;;;;;;;5068592;28;20043;-61
2023/10/13 14:48:44;;;;;;;24.95;9.23;;;;;;;;;;5070886;28;20070;-61
2023/10/13 14:51:14;;;;;;;28.23;8.23;;;;;;;;;;5072322;28;20067;-61
2023/10/13 14:53:44;;;;;;;27.27;8.32;;;;;;;;;;5071062;28;20037;-61
2023/10/13 14:56:11;;;;;;;31.50;9.55;;;;;;;;;;5068930;28;20122;-61
2023/10/13 14:58:42;;;;;;;26.15;8.32;;;;;;;;;;5071442;28;20055;-61
2023/10/13 15:01:18;;;;;;;26.75;9.32;;;;;;;;;;5072324;28;20365;-61
2023/10/13 15:03:44;;;;;;;30.38;8.55;;;;;;;;;;5070802;28;20048;-61
2023/10/13 15:06:17;;;;;;;36.13;10.63;;;;;;;;;;5059990;28;20036;-61
2023/10/13 15:08:46;;;;;;;38.10;9.52;;;;;;;;;;5071602;28;20469;-61
2023/10/13 15:11:12;;;;;;;38.10;10.77;;;;;;;;;;5072074;28;20041;-61
2023/10/13 15:13:42;;;;;;;42.75;10.35;;;;;;;;;;5071188;28;20492;-60
2023/10/13 15:16:18;;;;;;;32.40;9.98;;;;;;;;;;5066087;28;20134;-61
2023/10/13 15:18:45;;;;;;;42.78;10.90;;;;;;;;;;5064939;28;20044;-61
2023/10/13 15:21:13;;;;;;;40.88;10.70;;;;;;;;;;5064455;28;20201;-60
2023/10/13 15:23:42;;;;;;;35.85;10.55;;;;;;;;;;5063973;28;20048;-61
2023/10/13 15:26:14;;;;;;;37.03;11.65;;;;;;;;;;5062557;28;20057;-61
2023/10/13 15:28:53;;;;;;;37.75;10.35;;;;;;;;;;5060973;28;20060;-61
2023/10/13 15:31:26;;;;;;;32.95;9.95;;;;;;;;;;5063425;28;20044;-60
2023/10/13 15:33:54;;;;;;;;;;;;;;;;;;5065015;28;20040;-60
2023/10/13 15:36:23;;;;;;;38.72;9.57;;;;;;;;;;5063111;28;19966;-61
2023/10/13 15:38:51;;;;;;;39.97;10.23;;;;;;;;;;5062972;28;20063;-61
2023/10/13 15:41:24;;;;;;;36.22;9.57;;;;;;;;;;5063357;28;20045;-60
2023/10/13 15:43:51;;;;;;;31.23;9.10;;;;;;;;;;5060454;28;20104;-60
2023/10/13 15:46:18;;;;;;;38.10;10.20;;;;;;;;;;5063902;28;20072;-60
2023/10/13 15:48:47;;;;;;;35.90;10.55;;;;;;;;;;5080762;28;20480;-60
2023/10/13 15:51:14;;;;;;;41.22;10.75;;;;;;;;;;5060920;28;20557;-60
2023/10/13 15:53:40;;;;;;;41.55;10.02;;;;;;;;;;5063531;28;20115;-60
2023/10/13 15:56:14;;;;;;;32.90;9.23;;;;;;;;;;5062486;28;20032;-61
2023/10/13 15:58:50;;;;;;;28.83;8.18;;;;;;;;;;5071521;28;20087;-61
2023/10/13 16:01:16;;;;;;;34.22;9.80;;;;;;;;;;5061023;28;20078;-60
2023/10/13 16:03:52;;;;;;;31.30;8.77;;;;;;;;;;5065494;28;20044;-61
2023/10/13 16:06:18;;;;;;;43.92;9.40;;;;;;;;;;5069980;28;20175;-61
2023/10/13 16:08:45;;;;;;;28.77;8.30;;;;;;;;;;5070582;28;20041;-61
2023/10/13 16:11:17;;;;;;;28.98;7.90;;;;;;;;;;5070926;28;20179;-61
2023/10/13 16:13:50;;;;;;;36.97;8.48;;;;;;;;;;5069150;28;20178;-61
2023/10/13 16:16:16;;;;;;;32.22;9.02;;;;;;;;;;5070604;28;20045;-61
2023/10/13 16:18:47;;;;;;;31.60;8.00;;;;;;;;;;5071302;28;20486;-61
2023/10/13 16:21:14;;;;;;;26.23;7.40;;;;;;;;;;5062516;28;20404;-60
2023/10/13 16:23:41;;;;;;;26.25;6.97;;;;;;;;;;5069388;28;20044;-60
2023/10/13 16:26:08;;;;;;;27.40;6.88;;;;;;;;;;5068335;28;20380;-60
2023/10/13 16:28:35;;;;;;;22.38;6.72;;;;;;;;;;5071211;28;20491;-60
2023/10/13 16:31:07;;;;;;;25.08;8.70;;;;;;;;;;5066867;28;20129;-60
2023/10/13 16:33:41;;;;;;;25.17;5.90;;;;;;;;;;5062252;28;20095;-60
2023/10/13 16:36:10;;;;;;;23.23;6.30;;;;;;;;;;5059316;28;20041;-60
2023/10/13 16:38:37;;;;;;;21.50;6.55;;;;;;;;;;5060664;28;20041;-60
2023/10/13 16:41:06;;;;;;;24.92;7.07;;;;;;;;;;5062755;28;20115;-61
2023/10/13 16:43:36;;;;;;;24.55;7.25;;;;;;;;;;5061838;28;20515;-61
2023/10/13 16:46:06;;;;;;;21.15;5.32;;;;;;;;;;5061910;28;20400;-61
2023/10/13 16:48:35;;;;;;;23.95;6.07;;;;;;;;;;5061067;28;20047;-61
2023/10/13 16:51:02;;;;;;;24.83;5.47;;;;;;;;;;5061810;28;20120;-60
2023/10/13 16:53:28;;;;;;;22.17;5.88;;;;;;;;;;5060878;28;20132;-61
2023/10/13 16:55:54;;;;;;;26.73;5.90;;;;;;;;;;5060408;28;20496;-61
2023/10/13 16:58:22;;;;;;;25.23;6.80;;;;;;;;;;5062775;28;20087;-61
2023/10/13 17:00:51;;;;;;;22.45;5.93;;;;;;;;;;5062033;28;20107;-61
2023/10/13 17:03:29;;;;;;;26.20;6.07;;;;;;;;;;5061893;28;20374;-61
2023/10/13 17:05:55;;;;;;;29.00;6.43;;;;;;;;;;5062088;28;20120;-60
2023/10/13 17:08:22;;;;;;;25.80;6.28;;;;;;;;;;5060521;28;20033;-61
2023/10/13 17:10:49;;;;;;;24.58;6.47;;;;;;;;;;5060770;28;20053;-61
2023/10/13 17:13:16;;;;;;;21.15;5.40;;;;;;;;;;5063603;28;20041;-60
2023/10/13 17:15:42;;;;;;;22.50;7.13;;;;;;;;;;5062653;28;20040;-61
2023/10/13 17:18:11;;;;;;;24.08;6.28;;;;;;;;;;5061884;28;20114;-61
2023/10/13 17:20:38;;;;;;;22.48;6.55;;;;;;;;;;5062654;28;20436;-61
2023/10/13 17:23:06;;;;;;;21.35;6.15;;;;;;;;;;5060795;28;20036;-61
2023/10/13 17:25:33;;;;;;;22.02;5.65;;;;;;;;;;5061372;28;20054;-61
2023/10/13 17:27:59;;;;;;;22.75;6.18;;;;;;;;;;5060660;28;20118;-61
2023/10/13 17:30:25;;;;;;;23.63;6.03;;;;;;;;;;5060292;28;20484;-61
2023/10/13 17:32:51;;;;;;;18.60;5.32;;;;;;;;;;5064083;28;20036;-61
2023/10/13 17:35:18;;;;;;;18.02;4.72;;;;;;;;;;5060953;28;20057;-61
2023/10/13 17:37:44;;;;;;;19.02;4.70;;;;;;;;;;5060001;28;21765;-61
2023/10/13 17:40:20;;;;;;;21.25;5.63;;;;;;;;;;5061038;28;20049;-61
2023/10/13 17:42:49;;;;;;;22.38;6.38;;;;;;;;;;5061017;28;20048;-60
2023/10/13 17:45:16;;;;;;;21.48;6.28;;;;;;;;;;5059209;28;20116;-61
2023/10/13 17:47:45;;;;;;;21.15;6.78;;;;;;;;;;5061507;28;20439;-61
2023/10/13 17:50:16;;;;;;;31.75;9.00;;;;;;;;;;5062234;28;20878;-61
2023/10/13 17:52:47;;;;;;;23.95;7.95;;;;;;;;;;5060843;28;20053;-61
2023/10/13 17:55:14;;;;;;;23.77;9.25;;;;;;;;;;5061100;28;20045;-61
2023/10/13 17:57:42;;;;;;;34.47;8.50;;;;;;;;;;5062248;28;20120;-61
2023/10/13 18:00:14;;;;;;;25.30;8.63;;;;;;;;;;5058831;28;20128;-61
2023/10/13 18:02:43;;;;;;;24.08;9.27;;;;;;;;;;5061348;28;20151;-60
2023/10/13 18:05:13;;;;;;;22.55;9.55;;;;;;;;;;5063297;28;20033;-61
2023/10/13 18:07:42;;;;;;;26.75;9.85;;;;;;;;;;5065224;28;20101;-61
2023/10/13 18:10:13;;;;;;;27.15;9.38;;;;;;;;;;5064669;28;20460;-61
2023/10/13 18:12:42;;;;;;;33.85;10.98;;;;;;;;;;5064370;28;20041;-61